createdAt,value
2017-10-07T00:01:22.662Z,49.99
2017-10-07T00:03:52.979Z,50.05
2017-10-07T00:06:20.451Z,49.97
2017-10-07T00:08:47.902Z,49.92
2017-10-07T00:11:15.305Z,49.95
2017-10-07T00:13:42.722Z,49.88
2017-10-07T00:16:10.189Z,49.80
2017-10-07T00:18:37.594Z,49.84
2017-10-07T00:21:05.022Z,49.93
2017-10-07T00:23:32.561Z,49.86
2017-10-07T00:25:59.972Z,49.76
2017-10-07T00:28:27.384Z,49.83
2017-10-07T00:30:55.436Z,49.82
2017-10-07T00:33:22.843Z,49.80
2017-10-07T00:35:50.283Z,49.83
2017-10-07T00:38:18.306Z,49.81
2017-10-07T00:40:45.727Z,49.72
2017-10-07T00:43:13.137Z,49.64
2017-10-07T00:45:40.709Z,49.69
2017-10-07T00:48:08.135Z,49.72
2017-10-07T00:50:35.552Z,49.72
2017-10-07T00:53:03.383Z,49.64
2017-10-07T00:55:30.786Z,49.68
2017-10-07T00:57:58.195Z,49.55
2017-10-07T01:00:25.658Z,49.63
2017-10-07T01:02:53.103Z,49.67
2017-10-07T01:05:20.544Z,49.57
2017-10-07T01:07:48.009Z,49.65
2017-10-07T01:10:15.435Z,49.65
2017-10-07T01:12:43.015Z,49.54
2017-10-07T01:15:10.674Z,49.58
2017-10-07T01:17:38.098Z,49.56
2017-10-07T01:20:05.933Z,49.66
2017-10-07T01:22:33.393Z,49.50
2017-10-07T01:25:00.801Z,49.59
2017-10-07T01:27:28.262Z,49.42
2017-10-07T01:29:56.305Z,49.51
2017-10-07T01:32:23.757Z,49.45
2017-10-07T01:34:51.162Z,49.53
2017-10-07T01:37:19.561Z,49.46
2017-10-07T01:39:46.973Z,49.42
2017-10-07T01:42:14.506Z,49.38
2017-10-07T01:44:41.957Z,49.49
2017-10-07T01:47:09.375Z,49.42
2017-10-07T01:49:36.784Z,49.45
2017-10-07T01:52:04.248Z,49.34
2017-10-07T01:54:31.663Z,49.34
2017-10-07T01:56:59.081Z,49.46
2017-10-07T01:59:26.642Z,49.41
2017-10-07T02:01:54.074Z,49.34
2017-10-07T02:04:21.478Z,49.40
2017-10-07T02:06:48.949Z,49.36
2017-10-07T02:09:16.372Z,49.37
2017-10-07T02:11:43.812Z,49.31
2017-10-07T02:14:11.284Z,49.32
2017-10-07T02:16:38.725Z,49.20
2017-10-07T02:19:06.144Z,49.31
2017-10-07T02:21:33.638Z,49.22
2017-10-07T02:24:01.103Z,49.23
2017-10-07T02:26:28.587Z,49.29
2017-10-07T02:28:56.074Z,49.20
2017-10-07T02:31:23.490Z,49.21
2017-10-07T02:33:50.911Z,49.21
2017-10-07T02:36:18.395Z,49.23
2017-10-07T02:38:45.803Z,49.18
2017-10-07T02:41:13.226Z,49.23
2017-10-07T02:43:40.807Z,49.20
2017-10-07T02:46:08.219Z,49.21
2017-10-07T02:48:35.631Z,49.14
2017-10-07T02:51:03.092Z,49.15
2017-10-07T02:53:30.578Z,49.18
2017-10-07T02:55:58.142Z,49.12
2017-10-07T02:58:25.598Z,49.13
2017-10-07T03:00:53.693Z,49.17
2017-10-07T03:03:21.098Z,49.06
2017-10-07T03:05:48.537Z,49.13
2017-10-07T03:08:15.946Z,49.08
2017-10-07T03:10:43.362Z,49.12
2017-10-07T03:13:10.960Z,49.11
2017-10-07T03:15:38.380Z,49.13
2017-10-07T03:18:05.791Z,49.05
2017-10-07T03:20:33.427Z,49.00
2017-10-07T03:23:00.885Z,48.98
2017-10-07T03:25:28.363Z,49.04
2017-10-07T03:27:56.223Z,49.00
2017-10-07T03:30:23.692Z,49.03
2017-10-07T03:32:51.097Z,48.99
2017-10-07T03:35:18.569Z,48.95
2017-10-07T03:37:45.986Z,48.95
2017-10-07T03:40:13.408Z,48.96
2017-10-07T03:42:40.975Z,48.84
2017-10-07T03:45:08.424Z,48.87
2017-10-07T03:47:35.834Z,48.92
2017-10-07T03:50:03.428Z,48.96
2017-10-07T03:52:30.847Z,48.88
2017-10-07T03:54:58.325Z,48.75
2017-10-07T03:57:26.185Z,48.90
2017-10-07T03:59:53.598Z,48.92
2017-10-07T04:02:21.048Z,48.80
2017-10-07T04:04:48.477Z,48.82
2017-10-07T04:07:15.925Z,48.86
2017-10-07T04:09:43.386Z,48.72
2017-10-07T04:12:11.133Z,48.79
2017-10-07T04:14:38.537Z,48.76
2017-10-07T04:17:05.954Z,48.79
2017-10-07T04:19:33.839Z,48.75
2017-10-07T04:22:01.258Z,48.80
2017-10-07T04:24:28.671Z,48.68
2017-10-07T04:26:56.119Z,48.79
2017-10-07T04:29:23.521Z,48.67
2017-10-07T04:31:51.021Z,48.71
2017-10-07T04:34:18.523Z,48.70
2017-10-07T04:36:45.930Z,48.54
2017-10-07T04:39:13.342Z,48.67
2017-10-07T04:41:40.802Z,48.67
2017-10-07T04:44:08.292Z,48.63
2017-10-07T04:46:35.743Z,48.53
2017-10-07T04:49:03.204Z,48.66
2017-10-07T04:51:30.687Z,48.64
2017-10-07T04:53:58.099Z,48.54
2017-10-07T04:56:26.174Z,48.55
2017-10-07T04:58:53.593Z,48.64
2017-10-07T05:01:21.006Z,48.54
2017-10-07T05:03:48.462Z,48.60
2017-10-07T05:06:15.900Z,48.55
2017-10-07T05:08:43.315Z,48.67
2017-10-07T05:11:10.788Z,48.58
2017-10-07T05:13:38.192Z,48.61
2017-10-07T05:16:06.224Z,48.60
2017-10-07T05:18:33.799Z,48.57
2017-10-07T05:21:01.218Z,48.60
2017-10-07T05:23:28.631Z,48.53
2017-10-07T05:25:56.586Z,48.43
2017-10-07T05:28:23.990Z,48.49
2017-10-07T05:30:51.426Z,48.42
2017-10-07T05:33:18.869Z,48.36
2017-10-07T05:35:46.287Z,48.34
2017-10-07T05:38:13.707Z,48.31
2017-10-07T05:40:41.274Z,48.38
2017-10-07T05:43:08.685Z,48.23
2017-10-07T05:45:36.108Z,48.27
2017-10-07T05:48:03.890Z,48.22
2017-10-07T05:50:31.299Z,48.04
2017-10-07T05:52:58.735Z,48.12
2017-10-07T05:55:26.568Z,48.16
2017-10-07T05:57:53.980Z,48.05
2017-10-07T06:00:21.407Z,48.07
2017-10-07T06:02:49.041Z,47.91
2017-10-07T06:05:16.458Z,48.08
2017-10-07T06:07:43.895Z,48.09
2017-10-07T06:10:11.363Z,47.97
2017-10-07T06:12:38.785Z,47.88
2017-10-07T06:15:06.292Z,47.97
2017-10-07T06:17:33.855Z,47.90
2017-10-07T06:20:01.270Z,47.76
2017-10-07T06:22:28.684Z,47.71
2017-10-07T06:24:56.216Z,47.47
2017-10-07T06:27:23.650Z,47.72
2017-10-07T06:29:51.074Z,47.73
2017-10-07T06:32:18.605Z,47.79
2017-10-07T06:34:46.027Z,47.58
2017-10-07T06:37:13.443Z,47.53
2017-10-07T06:39:40.890Z,47.50
2017-10-07T06:42:08.426Z,47.51
2017-10-07T06:44:35.838Z,47.60
2017-10-07T06:47:03.285Z,47.49
2017-10-07T06:49:30.703Z,47.29
2017-10-07T06:51:58.118Z,47.66
2017-10-07T06:54:25.591Z,47.45
2017-10-07T06:56:53.015Z,47.50
2017-10-07T06:59:20.420Z,47.23
2017-10-07T07:01:47.886Z,47.78
2017-10-07T07:04:15.309Z,47.71
2017-10-07T07:06:42.719Z,47.52
2017-10-07T07:09:10.594Z,47.55
2017-10-07T07:11:38.055Z,47.74
2017-10-07T07:14:05.459Z,47.60
2017-10-07T07:16:33.054Z,47.77
2017-10-07T07:19:00.467Z,47.64
2017-10-07T07:21:27.893Z,47.64
2017-10-07T07:23:55.339Z,47.78
2017-10-07T07:26:22.761Z,47.73
2017-10-07T07:28:50.170Z,47.69
2017-10-07T07:31:17.794Z,47.74
2017-10-07T07:33:45.286Z,47.59
2017-10-07T07:36:13.494Z,47.49
2017-10-07T07:38:41.022Z,47.55
2017-10-07T07:41:08.743Z,47.64
2017-10-07T07:43:36.169Z,47.83
2017-10-07T07:46:05.451Z,47.93
2017-10-07T07:48:34.360Z,47.71
2017-10-07T07:51:01.871Z,47.93
2017-10-07T07:53:29.395Z,47.58
2017-10-07T07:55:57.272Z,47.97
2017-10-07T07:58:24.855Z,47.72
2017-10-07T08:00:52.273Z,48.06
2017-10-07T08:03:20.066Z,47.53
2017-10-07T08:05:47.586Z,47.57
2017-10-07T08:08:15.004Z,48.07
2017-10-07T08:10:42.463Z,48.09
2017-10-07T08:13:09.955Z,48.18
2017-10-07T08:15:37.364Z,48.14
2017-10-07T08:18:04.840Z,48.22
2017-10-07T08:20:32.254Z,48.22
2017-10-07T08:23:00.355Z,48.28
2017-10-07T08:25:27.814Z,48.29
2017-10-07T08:27:55.246Z,48.27
2017-10-07T08:30:22.643Z,48.30
2017-10-07T08:32:50.551Z,48.34
2017-10-07T08:35:17.994Z,48.41
2017-10-07T08:37:45.409Z,48.39
2017-10-07T08:40:13.227Z,48.39
2017-10-07T08:42:40.645Z,48.44
2017-10-07T08:45:08.146Z,48.36
2017-10-07T08:47:35.622Z,48.30
2017-10-07T08:50:03.065Z,48.49
2017-10-07T08:52:30.505Z,48.64
2017-10-07T08:54:57.984Z,48.60
2017-10-07T08:57:25.429Z,48.56
2017-10-07T08:59:52.840Z,48.62
2017-10-07T09:02:20.319Z,48.61
2017-10-07T09:04:47.747Z,48.81
2017-10-07T09:07:15.197Z,48.98
2017-10-07T09:09:42.823Z,48.78
2017-10-07T09:12:10.466Z,48.96
2017-10-07T09:14:37.890Z,49.00
2017-10-07T09:17:05.343Z,49.15
2017-10-07T09:19:32.766Z,49.08
2017-10-07T09:22:00.195Z,49.08
2017-10-07T09:24:27.958Z,49.17
2017-10-07T09:26:55.366Z,49.30
2017-10-07T09:29:22.795Z,49.65
2017-10-07T09:31:51.676Z,49.69
2017-10-07T09:34:19.078Z,49.69
2017-10-07T09:36:46.495Z,49.86
2017-10-07T09:39:13.940Z,50.02
2017-10-07T09:41:41.351Z,50.02
2017-10-07T09:44:08.781Z,50.04
2017-10-07T09:46:36.600Z,50.34
2017-10-07T09:49:04.015Z,50.29
2017-10-07T09:51:31.438Z,50.76
2017-10-07T09:53:58.899Z,50.78
2017-10-07T09:56:26.479Z,50.59
2017-10-07T09:58:53.901Z,49.81
2017-10-07T10:01:21.354Z,49.01
2017-10-07T10:03:48.789Z,49.05
2017-10-07T10:06:16.206Z,48.69
2017-10-07T10:08:44.029Z,48.41
2017-10-07T10:11:11.443Z,48.18
2017-10-07T10:13:39.013Z,48.24
2017-10-07T10:16:06.499Z,48.42
2017-10-07T10:18:33.919Z,48.68
2017-10-07T10:21:01.325Z,48.78
2017-10-07T10:23:28.787Z,48.95
2017-10-07T10:25:56.257Z,48.99
2017-10-07T10:28:23.671Z,49.05
2017-10-07T10:30:51.472Z,48.96
2017-10-07T10:33:19.624Z,49.01
2017-10-07T10:35:47.067Z,49.02
2017-10-07T10:38:14.814Z,48.96
2017-10-07T10:40:42.232Z,48.95
2017-10-07T10:43:09.653Z,48.87
2017-10-07T10:45:37.521Z,48.84
2017-10-07T10:48:05.384Z,48.81
2017-10-07T10:50:32.811Z,48.79
2017-10-07T10:53:00.326Z,48.72
2017-10-07T10:55:27.787Z,48.39
2017-10-07T10:57:55.210Z,48.39
2017-10-07T11:00:22.665Z,48.46
2017-10-07T11:02:50.083Z,48.29
2017-10-07T11:05:17.685Z,48.22
2017-10-07T11:07:45.157Z,48.12
2017-10-07T11:10:12.553Z,47.86
2017-10-07T11:12:39.991Z,47.64
2017-10-07T11:15:07.831Z,47.86
2017-10-07T11:17:35.237Z,47.80
2017-10-07T11:20:02.667Z,48.23
2017-10-07T11:22:30.166Z,47.90
2017-10-07T11:24:57.715Z,47.76
2017-10-07T11:27:25.130Z,48.28
2017-10-07T11:29:52.971Z,48.22
2017-10-07T11:32:20.448Z,48.18
2017-10-07T11:34:47.851Z,48.27
2017-10-07T11:37:15.428Z,48.34
2017-10-07T11:39:42.847Z,48.25
2017-10-07T11:42:10.264Z,48.33
2017-10-07T11:44:37.739Z,48.36
2017-10-07T11:47:05.159Z,48.29
2017-10-07T11:49:32.567Z,48.39
2017-10-07T11:52:00.787Z,48.48
2017-10-07T11:54:28.207Z,48.49
2017-10-07T11:56:55.631Z,48.43
2017-10-07T11:59:23.875Z,48.77
2017-10-07T12:01:51.298Z,48.42
2017-10-07T12:04:18.908Z,48.58
2017-10-07T12:06:46.363Z,48.57
2017-10-07T12:09:13.778Z,48.86
2017-10-07T12:11:41.194Z,49.17
2017-10-07T12:14:08.650Z,49.02
2017-10-07T12:16:36.058Z,49.29
2017-10-07T12:19:03.475Z,49.25
2017-10-07T12:21:30.958Z,48.99
2017-10-07T12:23:58.371Z,48.92
2017-10-07T12:26:25.793Z,49.33
2017-10-07T12:28:53.361Z,49.45
2017-10-07T12:31:20.773Z,49.55
2017-10-07T12:33:48.203Z,49.35
2017-10-07T12:36:15.663Z,49.15
2017-10-07T12:38:43.118Z,49.21
2017-10-07T12:41:10.533Z,49.24
2017-10-07T12:43:37.983Z,49.14
2017-10-07T12:46:05.427Z,49.31
2017-10-07T12:48:32.872Z,49.70
2017-10-07T12:51:00.665Z,49.54
2017-10-07T12:53:28.182Z,49.59
2017-10-07T12:55:55.591Z,50.42
2017-10-07T12:58:23.337Z,51.12
2017-10-07T13:00:50.743Z,51.72
2017-10-07T13:03:18.247Z,51.84
2017-10-07T13:05:45.718Z,53.12
2017-10-07T13:08:13.139Z,52.83
2017-10-07T13:10:40.554Z,52.80
2017-10-07T13:13:07.984Z,52.60
2017-10-07T13:15:35.405Z,52.51
2017-10-07T13:18:02.834Z,52.00
2017-10-07T13:20:30.281Z,51.85
2017-10-07T13:22:57.704Z,51.65
2017-10-07T13:25:25.128Z,51.64
2017-10-07T13:27:52.602Z,51.85
2017-10-07T13:30:20.202Z,51.84
2017-10-07T13:32:47.629Z,51.60
2017-10-07T13:35:15.077Z,51.47
2017-10-07T13:37:42.499Z,51.58
2017-10-07T13:40:09.919Z,51.47
2017-10-07T13:42:37.539Z,51.56
2017-10-07T13:45:05.034Z,51.62
2017-10-07T13:47:32.444Z,51.89
2017-10-07T13:50:00.044Z,51.89
2017-10-07T13:52:27.463Z,51.85
2017-10-07T13:54:54.922Z,52.01
2017-10-07T13:57:22.423Z,51.91
2017-10-07T13:59:49.846Z,51.85
2017-10-07T14:02:17.255Z,51.86
2017-10-07T14:04:44.716Z,51.89
2017-10-07T14:07:12.168Z,51.89
2017-10-07T14:09:39.578Z,51.86
2017-10-07T14:12:07.161Z,51.89
2017-10-07T14:14:34.639Z,51.78
2017-10-07T14:17:02.072Z,51.76
2017-10-07T14:19:30.042Z,51.68
2017-10-07T14:21:57.491Z,51.62
2017-10-07T14:24:24.913Z,51.61
2017-10-07T14:26:52.363Z,51.60
2017-10-07T14:29:19.861Z,51.54
2017-10-07T14:31:47.265Z,51.51
2017-10-07T14:34:15.068Z,51.39
2017-10-07T14:36:42.546Z,51.31
2017-10-07T14:39:09.960Z,51.35
2017-10-07T14:41:37.399Z,51.30
2017-10-07T14:44:05.189Z,51.20
2017-10-07T14:46:32.660Z,51.15
2017-10-07T14:49:00.236Z,51.08
2017-10-07T14:51:27.733Z,51.07
2017-10-07T14:53:55.158Z,51.03
2017-10-07T14:56:22.643Z,51.00
2017-10-07T14:58:50.110Z,50.92
2017-10-07T15:01:17.530Z,50.87
2017-10-07T15:03:45.016Z,50.90
2017-10-07T15:06:12.432Z,50.79
2017-10-07T15:08:39.961Z,50.75
2017-10-07T15:11:07.772Z,50.74
2017-10-07T15:13:35.182Z,50.63
2017-10-07T15:16:02.668Z,50.58
2017-10-07T15:18:30.099Z,50.63
2017-10-07T15:20:57.520Z,50.51
2017-10-07T15:23:24.935Z,50.46
2017-10-07T15:25:52.404Z,50.46
2017-10-07T15:28:20.043Z,50.42
2017-10-07T15:30:47.453Z,50.40
2017-10-07T15:33:15.274Z,50.38
2017-10-07T15:35:42.734Z,50.36
2017-10-07T15:38:10.142Z,50.28
2017-10-07T15:40:37.606Z,50.25
2017-10-07T15:43:05.037Z,50.20
2017-10-07T15:45:32.477Z,50.25
2017-10-07T15:48:00.328Z,50.23
2017-10-07T15:50:27.735Z,50.25
2017-10-07T15:52:55.163Z,50.10
2017-10-07T15:55:23.011Z,50.12
2017-10-07T15:57:50.484Z,50.12
2017-10-07T16:00:17.909Z,50.02
2017-10-07T16:02:45.416Z,50.02
2017-10-07T16:05:12.849Z,49.94
2017-10-07T16:07:41.763Z,50.03
2017-10-07T16:10:09.467Z,50.02
2017-10-07T16:12:36.932Z,49.98
2017-10-07T16:15:04.353Z,49.93
2017-10-07T16:17:32.487Z,49.92
2017-10-07T16:19:59.904Z,49.90
2017-10-07T16:22:27.318Z,49.85
2017-10-07T16:24:54.766Z,49.85
2017-10-07T16:27:22.291Z,49.90
2017-10-07T16:29:49.715Z,49.81
2017-10-07T16:32:17.194Z,49.81
2017-10-07T16:34:44.688Z,49.78
2017-10-07T16:37:12.103Z,49.75
2017-10-07T16:39:39.878Z,49.76
2017-10-07T16:42:07.287Z,49.73
2017-10-07T16:44:35.363Z,49.64
2017-10-07T16:47:02.891Z,49.70
2017-10-07T16:49:30.303Z,49.70
2017-10-07T16:51:57.721Z,49.66
2017-10-07T16:54:25.183Z,49.75
2017-10-07T16:56:53.603Z,49.64
2017-10-07T16:59:21.016Z,49.72
2017-10-07T17:01:49.144Z,49.55
2017-10-07T17:04:16.638Z,49.60
2017-10-07T17:06:44.097Z,49.57
2017-10-07T17:09:11.575Z,49.63
2017-10-07T17:11:39.189Z,49.64
2017-10-07T17:14:06.667Z,49.65
2017-10-07T17:16:34.524Z,49.60
2017-10-07T17:19:01.943Z,49.54
2017-10-07T17:21:29.351Z,49.54
2017-10-07T17:23:56.897Z,49.49
2017-10-07T17:26:24.428Z,49.55
2017-10-07T17:28:51.868Z,49.63
2017-10-07T17:31:19.963Z,49.43
2017-10-07T17:33:47.414Z,49.41
2017-10-07T17:36:14.878Z,49.47
2017-10-07T17:38:42.323Z,49.49
2017-10-07T17:41:09.728Z,49.40
2017-10-07T17:43:37.142Z,49.42
2017-10-07T17:46:04.918Z,49.34
2017-10-07T17:48:32.327Z,49.34
2017-10-07T17:50:59.817Z,49.35
2017-10-07T17:53:27.328Z,49.34
2017-10-07T17:55:54.742Z,49.38
2017-10-07T17:58:22.238Z,49.41
2017-10-07T18:00:49.944Z,49.29
2017-10-07T18:03:17.365Z,49.25
2017-10-07T18:05:44.864Z,49.34
2017-10-07T18:08:12.723Z,49.21
2017-10-07T18:10:40.143Z,49.25
2017-10-07T18:13:07.597Z,49.25
2017-10-07T18:15:35.062Z,49.24
2017-10-07T18:18:02.483Z,49.17
2017-10-07T18:20:29.908Z,49.25
2017-10-07T18:22:57.667Z,49.25
2017-10-07T18:25:25.082Z,49.19
2017-10-07T18:27:52.496Z,49.23
2017-10-07T18:30:20.254Z,49.28
2017-10-07T18:32:47.724Z,49.23
2017-10-07T18:35:15.177Z,49.23
2017-10-07T18:37:42.631Z,49.16
2017-10-07T18:40:10.037Z,49.19
2017-10-07T18:42:37.468Z,49.13
2017-10-07T18:45:04.906Z,49.19
2017-10-07T18:47:32.346Z,49.14
2017-10-07T18:49:59.781Z,49.20
2017-10-07T18:52:27.374Z,49.11
2017-10-07T18:54:54.786Z,49.14
2017-10-07T18:57:22.211Z,49.11
2017-10-07T18:59:49.680Z,49.12
2017-10-07T19:02:17.101Z,49.13
2017-10-07T19:04:44.530Z,49.08
2017-10-07T19:07:12.016Z,49.03
2017-10-07T19:09:39.440Z,49.00
2017-10-07T19:12:07.178Z,49.06
2017-10-07T19:14:34.969Z,49.13
2017-10-07T19:17:02.831Z,49.10
2017-10-07T19:19:30.292Z,49.01
2017-10-07T19:21:58.180Z,49.08
2017-10-07T19:24:25.628Z,48.88
2017-10-07T19:26:53.038Z,48.85
2017-10-07T19:29:20.872Z,48.99
2017-10-07T19:31:48.358Z,49.04
2017-10-07T19:34:16.160Z,49.00
2017-10-07T19:36:44.144Z,48.90
2017-10-07T19:39:11.792Z,48.92
2017-10-07T19:41:39.330Z,48.95
2017-10-07T19:44:06.994Z,49.07
2017-10-07T19:46:34.507Z,49.13
2017-10-07T19:49:02.178Z,49.09
2017-10-07T19:51:30.121Z,49.14
2017-10-07T19:53:57.531Z,49.12
2017-10-07T19:56:24.980Z,49.00
2017-10-07T19:58:52.439Z,48.96
2017-10-07T20:01:19.851Z,48.99
2017-10-07T20:03:47.283Z,48.82
2017-10-07T20:06:14.876Z,48.93
2017-10-07T20:08:42.352Z,48.91
2017-10-07T20:11:09.762Z,48.83
2017-10-07T20:13:37.316Z,48.84
2017-10-07T20:16:04.821Z,48.87
2017-10-07T20:18:32.264Z,48.75
2017-10-07T20:21:00.104Z,48.79
2017-10-07T20:23:27.519Z,48.80
2017-10-07T20:25:54.955Z,48.82
2017-10-07T20:28:22.413Z,48.75
2017-10-07T20:30:49.822Z,48.73
2017-10-07T20:33:18.151Z,48.72
2017-10-07T20:35:45.859Z,48.75
2017-10-07T20:38:13.278Z,48.64
2017-10-07T20:40:40.719Z,48.47
2017-10-07T20:43:08.164Z,48.58
2017-10-07T20:45:35.592Z,48.51
2017-10-07T20:48:03.055Z,48.43
2017-10-07T20:53:23.687Z,48.47
2017-10-07T20:55:51.126Z,48.59
2017-10-07T20:58:18.540Z,48.52
2017-10-07T21:00:46.119Z,48.54
2017-10-07T21:03:13.546Z,48.46
2017-10-07T21:05:40.969Z,48.39
2017-10-07T21:08:08.445Z,48.48
2017-10-07T21:10:35.952Z,48.43
2017-10-07T21:13:03.363Z,48.53
2017-10-07T21:15:30.829Z,48.71
2017-10-07T21:17:58.259Z,48.71
2017-10-07T21:20:26.394Z,48.76
2017-10-07T21:22:54.171Z,48.80
2017-10-07T21:25:21.585Z,48.98
2017-10-07T21:27:49.111Z,48.95
2017-10-07T21:30:16.966Z,48.97
2017-10-07T21:32:44.386Z,48.98
2017-10-07T21:35:11.872Z,49.04
2017-10-07T21:37:39.329Z,49.07
2017-10-07T21:40:06.746Z,49.15
2017-10-07T21:42:34.196Z,49.10
2017-10-07T21:45:01.971Z,49.12
2017-10-07T21:47:29.379Z,49.12
2017-10-07T21:49:56.794Z,49.19
2017-10-07T21:52:24.663Z,49.18
2017-10-07T21:54:52.069Z,49.25
2017-10-07T21:57:19.507Z,49.26
2017-10-07T21:59:47.348Z,49.30
2017-10-07T22:02:14.756Z,49.28
2017-10-07T22:04:42.226Z,49.30
2017-10-07T22:07:09.668Z,49.33
2017-10-07T22:09:37.103Z,49.27
2017-10-07T22:12:05.074Z,49.30
2017-10-07T22:14:32.695Z,49.29
2017-10-07T22:17:02.549Z,49.26
2017-10-07T22:19:30.668Z,49.27
2017-10-07T22:21:58.145Z,49.32
2017-10-07T22:24:25.564Z,49.31
2017-10-07T22:26:52.984Z,49.29
2017-10-07T22:29:20.467Z,49.29
2017-10-07T22:31:47.913Z,49.32
2017-10-07T22:34:15.309Z,49.31
2017-10-07T22:36:43.194Z,49.39
2017-10-07T22:39:10.604Z,49.32
2017-10-07T22:41:38.026Z,49.33
2017-10-07T22:44:05.665Z,49.41
2017-10-07T22:46:33.073Z,49.40
2017-10-07T22:49:00.587Z,49.36
2017-10-07T22:51:28.094Z,49.37
2017-10-07T22:53:55.507Z,49.39
2017-10-07T22:56:22.978Z,49.40
2017-10-07T22:58:50.448Z,49.40
2017-10-07T23:01:17.865Z,49.47
2017-10-07T23:03:45.280Z,49.48
2017-10-07T23:06:12.727Z,49.49
2017-10-07T23:08:40.138Z,49.55
2017-10-07T23:11:07.550Z,49.50
2017-10-07T23:13:35.014Z,49.54
2017-10-07T23:16:02.490Z,49.54
2017-10-07T23:18:29.904Z,49.56
2017-10-07T23:20:57.370Z,49.57
2017-10-07T23:23:24.793Z,49.55
2017-10-07T23:25:52.226Z,49.54
2017-10-07T23:28:19.813Z,49.55
2017-10-07T23:30:48.006Z,49.58
2017-10-07T23:33:15.438Z,49.63
2017-10-07T23:35:43.183Z,49.57
2017-10-07T23:38:10.600Z,49.62
2017-10-07T23:40:38.152Z,49.54
2017-10-07T23:43:05.600Z,49.49
2017-10-07T23:45:33.018Z,49.49
2017-10-07T23:48:00.446Z,49.47
2017-10-07T23:50:27.910Z,49.41
2017-10-07T23:52:55.433Z,49.35
2017-10-07T23:55:22.936Z,49.38
2017-10-07T23:57:50.422Z,49.34
